Vredenburgh, AL (36481)

1:24 PM CST on February 28, 2015 (GMT -0600)
KALFRISC2 | Change Station
CLOSE
Current Station
Personal Weather Station
Location: Perdue Hill, AL
Elevation: 70 ft
Nearby Weather Stations

Elev 70 ft 31.58 °N, 87.49 °W | Updated 4 minutes ago

Partly Cloudy
Partly Cloudy
64.3 °F
Feels Like 64.3 °F
N
3.0
Wind Variable Wind from ENE
Gusts 3.0 mph

Today
High -- | Low -- °F
--% Chance of Precip.
Yesterday
High -- | Low -- °F
Precip. -- in
6:17 AM 5:46 PM
Waxing Gibbous, 79% visible
Pressure 30.39 in
Visibility 10.0 miles
Clouds Mostly Cloudy 2700 ft
Overcast 3500 ft
Dew Point 45 °F
Humidity 49%
Rainfall 0.00 in
Snow Depth Not available.
UV 2 out of 12
Pollen 8.90 out of 12
Air Quality Not available.
Flu Activity Not available.
METAR KGZH 281853Z AUTO 07005KT 10SM BKN027 OVC035 17/07 A3039 RMK AO2 SLP289 T01720067

More Conditions Fewer Conditions

Pressure 30.39 in
Visibility 10.0 miles
Clouds Mostly Cloudy 2700 ft
Overcast 3500 ft
Dew Point 45 °F
Humidity 49%
Rainfall 0.00 in
Snow Depth Not available.
UV 2 out of 12
Pollen 8.90 out of 12
Air Quality Not available.
Flu Activity Not available.
METAR KGZH 281853Z AUTO 07005KT 10SM BKN027 OVC035 17/07 A3039 RMK AO2 SLP289 T01720067

More Conditions Fewer Conditions

10-Day Weather Forecast

Almanac

Astronomy

Feb. 28, 2015 Rise Set
Actual Time
Civil Twilight
Nautical Twilight
Astronomical Twilight
Moon
Length of Visible Light
Length of Day
Tomorrow will be .
, % of the Moon is Illuminated

Today's Extremes

State Highs State Lows

Community

WunderPhotos

Upload Photos

1,801,122 photos uploaded!

WunderBlogs® & News

Nearby

Air Quality

  Air Quality AQ Index Pollutant
Not available.

Snow Depth

Station Depth Elevation

Earthquake Activity

City Distance Mag. Time & Date
Minimum magnitude displayed is 2.5.

Coastal Water Temperatures

Place Temperature

Nearby Weather Stations